sensor_id;sensor_type;location;lat;lon;timestamp;P1;durP1;ratioP1;P2;durP2;ratioP2
11453;SDS011;5783;55.174;61.310;2023-05-29T00:00:05;12.00;;;10.30;;
11453;SDS011;5783;55.174;61.310;2023-05-29T00:02:35;11.90;;;10.70;;
11453;SDS011;5783;55.174;61.310;2023-05-29T00:05:04;12.47;;;11.17;;
11453;SDS011;5783;55.174;61.310;2023-05-29T00:07:33;15.40;;;11.70;;
11453;SDS011;5783;55.174;61.310;2023-05-29T00:10:02;12.57;;;11.27;;
11453;SDS011;5783;55.174;61.310;2023-05-29T00:12:32;12.33;;;11.13;;
11453;SDS011;5783;55.174;61.310;2023-05-29T00:15:01;15.13;;;11.73;;
11453;SDS011;5783;55.174;61.310;2023-05-29T00:17:31;12.53;;;11.33;;
11453;SDS011;5783;55.174;61.310;2023-05-29T00:20:01;12.13;;;10.93;;
11453;SDS011;5783;55.174;61.310;2023-05-29T00:22:32;12.60;;;11.20;;
11453;SDS011;5783;55.174;61.310;2023-05-29T00:25:04;12.23;;;10.87;;
11453;SDS011;5783;55.174;61.310;2023-05-29T00:27:34;12.60;;;11.30;;
11453;SDS011;5783;55.174;61.310;2023-05-29T00:30:04;13.23;;;11.80;;
11453;SDS011;5783;55.174;61.310;2023-05-29T00:32:33;12.33;;;10.43;;
11453;SDS011;5783;55.174;61.310;2023-05-29T00:35:03;12.20;;;10.93;;
11453;SDS011;5783;55.174;61.310;2023-05-29T00:37:32;11.60;;;10.40;;
11453;SDS011;5783;55.174;61.310;2023-05-29T00:40:01;11.20;;;10.10;;
11453;SDS011;5783;55.174;61.310;2023-05-29T00:42:31;11.67;;;10.57;;
11453;SDS011;5783;55.174;61.310;2023-05-29T00:45:00;11.37;;;10.27;;
11453;SDS011;5783;55.174;61.310;2023-05-29T00:47:30;11.43;;;10.20;;
11453;SDS011;5783;55.174;61.310;2023-05-29T00:49:59;11.53;;;10.43;;
11453;SDS011;5783;55.174;61.310;2023-05-29T00:52:30;11.57;;;10.50;;
11453;SDS011;5783;55.174;61.310;2023-05-29T00:54:59;11.17;;;10.07;;
11453;SDS011;5783;55.174;61.310;2023-05-29T00:57:30;11.33;;;10.23;;
11453;SDS011;5783;55.174;61.310;2023-05-29T01:00:02;10.60;;;9.50;;
11453;SDS011;5783;55.174;61.310;2023-05-29T01:02:35;10.70;;;9.70;;
11453;SDS011;5783;55.174;61.310;2023-05-29T01:05:06;11.50;;;10.30;;
11453;SDS011;5783;55.174;61.310;2023-05-29T01:07:37;11.10;;;10.00;;
11453;SDS011;5783;55.174;61.310;2023-05-29T01:10:07;11.40;;;10.20;;
11453;SDS011;5783;55.174;61.310;2023-05-29T01:12:38;11.43;;;10.30;;
11453;SDS011;5783;55.174;61.310;2023-05-29T01:26:50;10.70;;;9.60;;
11453;SDS011;5783;55.174;61.310;2023-05-29T01:29:22;10.93;;;9.90;;
11453;SDS011;5783;55.174;61.310;2023-05-29T01:31:53;12.10;;;10.80;;
11453;SDS011;5783;55.174;61.310;2023-05-29T01:34:24;12.03;;;10.83;;
11453;SDS011;5783;55.174;61.310;2023-05-29T01:36:53;11.77;;;10.43;;
11453;SDS011;5783;55.174;61.310;2023-05-29T01:39:22;12.33;;;11.03;;
11453;SDS011;5783;55.174;61.310;2023-05-29T01:41:52;11.97;;;10.77;;
11453;SDS011;5783;55.174;61.310;2023-05-29T01:44:23;11.23;;;10.23;;
11453;SDS011;5783;55.174;61.310;2023-05-29T01:46:53;10.53;;;9.53;;
11453;SDS011;5783;55.174;61.310;2023-05-29T01:49:23;11.73;;;10.63;;
11453;SDS011;5783;55.174;61.310;2023-05-29T01:51:54;12.00;;;10.67;;
11453;SDS011;5783;55.174;61.310;2023-05-29T01:54:23;11.80;;;10.70;;
11453;SDS011;5783;55.174;61.310;2023-05-29T01:56:52;11.73;;;10.57;;
11453;SDS011;5783;55.174;61.310;2023-05-29T01:59:21;12.63;;;10.90;;
11453;SDS011;5783;55.174;61.310;2023-05-29T02:01:52;12.33;;;10.87;;
11453;SDS011;5783;55.174;61.310;2023-05-29T02:04:21;11.27;;;10.17;;
11453;SDS011;5783;55.174;61.310;2023-05-29T02:06:50;11.90;;;10.67;;
11453;SDS011;5783;55.174;61.310;2023-05-29T02:09:20;11.13;;;10.03;;
11453;SDS011;5783;55.174;61.310;2023-05-29T02:11:51;11.13;;;10.03;;
11453;SDS011;5783;55.174;61.310;2023-05-29T02:14:20;10.50;;;9.60;;
11453;SDS011;5783;55.174;61.310;2023-05-29T02:16:51;10.80;;;9.80;;
11453;SDS011;5783;55.174;61.310;2023-05-29T02:19:20;10.67;;;9.67;;
11453;SDS011;5783;55.174;61.310;2023-05-29T02:21:51;11.20;;;10.10;;
11453;SDS011;5783;55.174;61.310;2023-05-29T02:24:20;11.23;;;10.13;;
11453;SDS011;5783;55.174;61.310;2023-05-29T02:26:49;10.83;;;9.73;;
11453;SDS011;5783;55.174;61.310;2023-05-29T02:29:18;12.80;;;10.50;;
11453;SDS011;5783;55.174;61.310;2023-05-29T02:31:47;11.60;;;10.33;;
11453;SDS011;5783;55.174;61.310;2023-05-29T02:34:17;11.20;;;10.20;;
11453;SDS011;5783;55.174;61.310;2023-05-29T02:36:47;10.87;;;9.80;;
11453;SDS011;5783;55.174;61.310;2023-05-29T02:39:19;10.40;;;9.40;;
11453;SDS011;5783;55.174;61.310;2023-05-29T02:41:48;10.77;;;9.67;;
11453;SDS011;5783;55.174;61.310;2023-05-29T02:44:17;11.10;;;10.00;;
11453;SDS011;5783;55.174;61.310;2023-05-29T02:46:46;10.63;;;9.63;;
11453;SDS011;5783;55.174;61.310;2023-05-29T02:49:15;10.57;;;9.57;;
11453;SDS011;5783;55.174;61.310;2023-05-29T02:51:44;10.90;;;9.87;;
11453;SDS011;5783;55.174;61.310;2023-05-29T02:54:13;10.87;;;9.77;;
11453;SDS011;5783;55.174;61.310;2023-05-29T02:56:42;11.10;;;10.00;;
11453;SDS011;5783;55.174;61.310;2023-05-29T02:59:11;10.87;;;9.77;;
11453;SDS011;5783;55.174;61.310;2023-05-29T03:01:40;11.37;;;10.07;;
11453;SDS011;5783;55.174;61.310;2023-05-29T03:04:10;10.60;;;9.60;;
11453;SDS011;5783;55.174;61.310;2023-05-29T03:06:39;11.63;;;10.43;;
11453;SDS011;5783;55.174;61.310;2023-05-29T03:09:08;11.00;;;9.90;;
11453;SDS011;5783;55.174;61.310;2023-05-29T03:11:38;11.03;;;9.90;;
11453;SDS011;5783;55.174;61.310;2023-05-29T03:14:07;11.13;;;9.93;;
11453;SDS011;5783;55.174;61.310;2023-05-29T03:16:36;10.97;;;9.87;;
11453;SDS011;5783;55.174;61.310;2023-05-29T03:19:06;11.30;;;10.20;;
11453;SDS011;5783;55.174;61.310;2023-05-29T03:21:35;11.47;;;9.83;;
11453;SDS011;5783;55.174;61.310;2023-05-29T03:24:05;11.37;;;10.27;;
11453;SDS011;5783;55.174;61.310;2023-05-29T03:26:34;11.03;;;9.77;;
11453;SDS011;5783;55.174;61.310;2023-05-29T03:29:04;10.03;;;9.07;;
11453;SDS011;5783;55.174;61.310;2023-05-29T03:31:33;10.57;;;9.57;;
11453;SDS011;5783;55.174;61.310;2023-05-29T03:34:02;10.67;;;8.50;;
11453;SDS011;5783;55.174;61.310;2023-05-29T03:36:31;10.30;;;9.20;;
11453;SDS011;5783;55.174;61.310;2023-05-29T03:39:02;9.20;;;8.20;;
11453;SDS011;5783;55.174;61.310;2023-05-29T03:41:32;9.87;;;8.87;;
11453;SDS011;5783;55.174;61.310;2023-05-29T03:44:01;9.33;;;8.43;;
11453;SDS011;5783;55.174;61.310;2023-05-29T03:46:31;9.30;;;8.40;;
11453;SDS011;5783;55.174;61.310;2023-05-29T03:49:00;8.77;;;7.93;;
11453;SDS011;5783;55.174;61.310;2023-05-29T03:51:29;8.50;;;7.70;;
11453;SDS011;5783;55.174;61.310;2023-05-29T03:53:58;11.00;;;9.00;;
11453;SDS011;5783;55.174;61.310;2023-05-29T03:56:27;10.07;;;9.07;;
11453;SDS011;5783;55.174;61.310;2023-05-29T03:58:56;8.87;;;8.00;;
11453;SDS011;5783;55.174;61.310;2023-05-29T04:01:25;9.03;;;8.10;;
11453;SDS011;5783;55.174;61.310;2023-05-29T04:03:54;8.90;;;8.10;;
11453;SDS011;5783;55.174;61.310;2023-05-29T04:06:23;8.67;;;7.77;;
11453;SDS011;5783;55.174;61.310;2023-05-29T04:08:52;8.50;;;7.70;;
11453;SDS011;5783;55.174;61.310;2023-05-29T04:11:21;9.27;;;7.73;;
11453;SDS011;5783;55.174;61.310;2023-05-29T04:13:50;9.03;;;7.97;;
11453;SDS011;5783;55.174;61.310;2023-05-29T04:16:19;9.10;;;8.20;;
11453;SDS011;5783;55.174;61.310;2023-05-29T04:18:49;8.73;;;7.93;;
11453;SDS011;5783;55.174;61.310;2023-05-29T04:21:18;8.27;;;7.50;;
11453;SDS011;5783;55.174;61.310;2023-05-29T04:23:47;8.40;;;7.60;;
11453;SDS011;5783;55.174;61.310;2023-05-29T04:26:16;9.45;;;8.20;;
11453;SDS011;5783;55.174;61.310;2023-05-29T04:28:45;9.33;;;7.93;;
11453;SDS011;5783;55.174;61.310;2023-05-29T04:31:15;9.00;;;8.10;;
11453;SDS011;5783;55.174;61.310;2023-05-29T04:33:45;10.20;;;7.97;;
11453;SDS011;5783;55.174;61.310;2023-05-29T04:36:15;7.80;;;7.10;;
11453;SDS011;5783;55.174;61.310;2023-05-29T04:38:45;8.20;;;7.40;;
11453;SDS011;5783;55.174;61.310;2023-05-29T04:41:16;9.67;;;8.67;;
11453;SDS011;5783;55.174;61.310;2023-05-29T04:43:45;9.67;;;8.67;;
11453;SDS011;5783;55.174;61.310;2023-05-29T04:46:14;14.53;;;8.63;;
11453;SDS011;5783;55.174;61.310;2023-05-29T04:48:43;10.17;;;8.03;;
11453;SDS011;5783;55.174;61.310;2023-05-29T04:51:13;8.73;;;7.83;;
11453;SDS011;5783;55.174;61.310;2023-05-29T04:53:42;8.60;;;7.70;;
11453;SDS011;5783;55.174;61.310;2023-05-29T04:56:12;9.00;;;8.03;;
11453;SDS011;5783;55.174;61.310;2023-05-29T04:59:01;9.53;;;8.13;;
11453;SDS011;5783;55.174;61.310;2023-05-29T05:01:30;9.10;;;7.85;;
11453;SDS011;5783;55.174;61.310;2023-05-29T05:04:00;10.57;;;8.00;;
11453;SDS011;5783;55.174;61.310;2023-05-29T05:06:29;9.70;;;8.70;;
11453;SDS011;5783;55.174;61.310;2023-05-29T05:08:58;9.60;;;8.60;;
11453;SDS011;5783;55.174;61.310;2023-05-29T05:11:29;8.83;;;7.87;;
11453;SDS011;5783;55.174;61.310;2023-05-29T05:13:58;16.97;;;15.17;;
11453;SDS011;5783;55.174;61.310;2023-05-29T05:16:27;16.87;;;14.53;;
11453;SDS011;5783;55.174;61.310;2023-05-29T05:18:58;24.10;;;20.50;;
11453;SDS011;5783;55.174;61.310;2023-05-29T05:21:27;32.87;;;28.90;;
11453;SDS011;5783;55.174;61.310;2023-05-29T05:24:16;21.07;;;17.60;;
11453;SDS011;5783;55.174;61.310;2023-05-29T05:26:45;24.17;;;19.87;;
11453;SDS011;5783;55.174;61.310;2023-05-29T05:29:14;19.57;;;16.47;;
11453;SDS011;5783;55.174;61.310;2023-05-29T05:31:44;20.70;;;18.13;;
11453;SDS011;5783;55.174;61.310;2023-05-29T05:34:13;33.80;;;29.73;;
11453;SDS011;5783;55.174;61.310;2023-05-29T05:36:42;45.43;;;35.53;;
11453;SDS011;5783;55.174;61.310;2023-05-29T05:39:11;39.37;;;31.50;;
11453;SDS011;5783;55.174;61.310;2023-05-29T05:41:40;33.70;;;26.53;;
11453;SDS011;5783;55.174;61.310;2023-05-29T05:44:09;36.75;;;29.25;;
11453;SDS011;5783;55.174;61.310;2023-05-29T05:46:38;28.97;;;23.83;;
11453;SDS011;5783;55.174;61.310;2023-05-29T05:51:38;21.60;;;19.30;;
11453;SDS011;5783;55.174;61.310;2023-05-29T05:54:08;21.30;;;17.43;;
11453;SDS011;5783;55.174;61.310;2023-05-29T05:56:38;18.20;;;14.33;;
11453;SDS011;5783;55.174;61.310;2023-05-29T05:59:07;16.80;;;14.57;;
11453;SDS011;5783;55.174;61.310;2023-05-29T06:01:36;16.97;;;14.13;;
11453;SDS011;5783;55.174;61.310;2023-05-29T06:04:07;14.87;;;13.07;;
11453;SDS011;5783;55.174;61.310;2023-05-29T06:06:36;14.40;;;12.13;;
11453;SDS011;5783;55.174;61.310;2023-05-29T06:09:05;12.63;;;10.03;;
11453;SDS011;5783;55.174;61.310;2023-05-29T06:11:35;10.20;;;7.63;;
11453;SDS011;5783;55.174;61.310;2023-05-29T06:14:04;9.50;;;8.40;;
11453;SDS011;5783;55.174;61.310;2023-05-29T06:16:33;10.70;;;8.80;;
11453;SDS011;5783;55.174;61.310;2023-05-29T06:19:02;10.43;;;6.80;;
11453;SDS011;5783;55.174;61.310;2023-05-29T06:21:32;10.00;;;7.00;;
11453;SDS011;5783;55.174;61.310;2023-05-29T06:24:01;9.90;;;7.57;;
11453;SDS011;5783;55.174;61.310;2023-05-29T06:26:30;6.73;;;5.63;;
11453;SDS011;5783;55.174;61.310;2023-05-29T06:28:59;7.00;;;4.97;;
11453;SDS011;5783;55.174;61.310;2023-05-29T06:31:28;6.13;;;4.73;;
11453;SDS011;5783;55.174;61.310;2023-05-29T06:33:58;7.25;;;5.20;;
11453;SDS011;5783;55.174;61.310;2023-05-29T06:36:28;6.55;;;5.10;;
11453;SDS011;5783;55.174;61.310;2023-05-29T06:38:58;6.85;;;4.90;;
11453;SDS011;5783;55.174;61.310;2023-05-29T06:41:47;7.05;;;4.45;;
11453;SDS011;5783;55.174;61.310;2023-05-29T06:44:16;6.27;;;4.20;;
11453;SDS011;5783;55.174;61.310;2023-05-29T06:46:45;4.30;;;3.90;;
11453;SDS011;5783;55.174;61.310;2023-05-29T06:49:14;5.40;;;4.60;;
11453;SDS011;5783;55.174;61.310;2023-05-29T06:51:45;5.47;;;4.20;;
11453;SDS011;5783;55.174;61.310;2023-05-29T06:56:47;6.20;;;4.50;;
11453;SDS011;5783;55.174;61.310;2023-05-29T06:59:16;6.07;;;4.47;;
11453;SDS011;5783;55.174;61.310;2023-05-29T07:01:46;5.40;;;4.03;;
11453;SDS011;5783;55.174;61.310;2023-05-29T07:04:15;8.45;;;4.20;;
11453;SDS011;5783;55.174;61.310;2023-05-29T07:06:44;6.17;;;4.17;;
11453;SDS011;5783;55.174;61.310;2023-05-29T07:09:13;4.70;;;4.20;;
11453;SDS011;5783;55.174;61.310;2023-05-29T07:11:42;6.50;;;3.80;;
11453;SDS011;5783;55.174;61.310;2023-05-29T07:14:11;5.77;;;4.20;;
11453;SDS011;5783;55.174;61.310;2023-05-29T07:16:42;5.00;;;3.90;;
11453;SDS011;5783;55.174;61.310;2023-05-29T07:19:11;7.30;;;4.20;;
11453;SDS011;5783;55.174;61.310;2023-05-29T07:24:11;4.20;;;3.80;;
11453;SDS011;5783;55.174;61.310;2023-05-29T07:32:04;5.30;;;4.00;;
11453;SDS011;5783;55.174;61.310;2023-05-29T07:34:33;5.67;;;3.90;;
11453;SDS011;5783;55.174;61.310;2023-05-29T07:42:24;5.60;;;3.80;;
11453;SDS011;5783;55.174;61.310;2023-05-29T07:44:53;5.70;;;4.00;;
11453;SDS011;5783;55.174;61.310;2023-05-29T07:47:22;5.50;;;3.97;;
11453;SDS011;5783;55.174;61.310;2023-05-29T07:49:51;4.40;;;3.60;;
11453;SDS011;5783;55.174;61.310;2023-05-29T07:52:20;5.13;;;3.50;;
11453;SDS011;5783;55.174;61.310;2023-05-29T07:54:49;6.90;;;3.70;;
11453;SDS011;5783;55.174;61.310;2023-05-29T08:00:09;4.55;;;4.00;;
11453;SDS011;5783;55.174;61.310;2023-05-29T08:02:39;5.97;;;3.67;;
11453;SDS011;5783;55.174;61.310;2023-05-29T08:05:08;5.17;;;3.60;;
11453;SDS011;5783;55.174;61.310;2023-05-29T08:07:59;7.37;;;3.83;;
11453;SDS011;5783;55.174;61.310;2023-05-29T08:10:30;4.50;;;3.30;;
11453;SDS011;5783;55.174;61.310;2023-05-29T08:13:00;4.00;;;3.60;;
11453;SDS011;5783;55.174;61.310;2023-05-29T08:15:35;4.00;;;3.50;;
11453;SDS011;5783;55.174;61.310;2023-05-29T08:18:04;7.35;;;3.80;;
11453;SDS011;5783;55.174;61.310;2023-05-29T08:20:33;5.23;;;3.63;;
11453;SDS011;5783;55.174;61.310;2023-05-29T08:23:02;5.33;;;3.50;;
11453;SDS011;5783;55.174;61.310;2023-05-29T08:25:31;4.90;;;3.60;;
11453;SDS011;5783;55.174;61.310;2023-05-29T08:28:01;3.60;;;3.30;;
11453;SDS011;5783;55.174;61.310;2023-05-29T08:30:31;6.23;;;3.57;;
11453;SDS011;5783;55.174;61.310;2023-05-29T08:33:00;4.25;;;3.05;;
11453;SDS011;5783;55.174;61.310;2023-05-29T08:35:29;3.80;;;3.40;;
11453;SDS011;5783;55.174;61.310;2023-05-29T08:37:59;6.37;;;3.77;;
11453;SDS011;5783;55.174;61.310;2023-05-29T08:40:28;3.87;;;3.43;;
11453;SDS011;5783;55.174;61.310;2023-05-29T08:45:29;5.57;;;3.27;;
11453;SDS011;5783;55.174;61.310;2023-05-29T08:48:03;3.50;;;3.20;;
11453;SDS011;5783;55.174;61.310;2023-05-29T08:50:33;4.47;;;3.40;;
11453;SDS011;5783;55.174;61.310;2023-05-29T08:53:03;4.50;;;3.70;;
11453;SDS011;5783;55.174;61.310;2023-05-29T08:55:32;3.35;;;3.00;;
11453;SDS011;5783;55.174;61.310;2023-05-29T08:58:02;4.60;;;3.35;;
11453;SDS011;5783;55.174;61.310;2023-05-29T09:00:32;4.30;;;3.33;;
11453;SDS011;5783;55.174;61.310;2023-05-29T09:03:03;4.30;;;3.40;;
11453;SDS011;5783;55.174;61.310;2023-05-29T09:05:34;4.20;;;3.40;;
11453;SDS011;5783;55.174;61.310;2023-05-29T09:08:06;6.50;;;3.53;;
11453;SDS011;5783;55.174;61.310;2023-05-29T09:10:39;3.83;;;3.20;;
11453;SDS011;5783;55.174;61.310;2023-05-29T09:13:10;4.27;;;3.30;;
11453;SDS011;5783;55.174;61.310;2023-05-29T09:15:40;4.13;;;3.17;;
11453;SDS011;5783;55.174;61.310;2023-05-29T09:18:09;4.25;;;3.15;;
11453;SDS011;5783;55.174;61.310;2023-05-29T09:20:39;3.40;;;2.83;;
11453;SDS011;5783;55.174;61.310;2023-05-29T09:23:09;5.20;;;3.50;;
11453;SDS011;5783;55.174;61.310;2023-05-29T09:28:09;4.63;;;3.40;;
11453;SDS011;5783;55.174;61.310;2023-05-29T09:30:39;3.60;;;3.10;;
11453;SDS011;5783;55.174;61.310;2023-05-29T09:33:10;3.93;;;3.10;;
11453;SDS011;5783;55.174;61.310;2023-05-29T09:35:41;4.45;;;3.25;;
11453;SDS011;5783;55.174;61.310;2023-05-29T09:38:12;4.00;;;3.10;;
11453;SDS011;5783;55.174;61.310;2023-05-29T09:40:42;5.43;;;3.30;;
11453;SDS011;5783;55.174;61.310;2023-05-29T09:46:02;3.35;;;3.00;;
11453;SDS011;5783;55.174;61.310;2023-05-29T09:48:34;5.80;;;3.40;;
11453;SDS011;5783;55.174;61.310;2023-05-29T09:51:04;4.83;;;3.17;;
11453;SDS011;5783;55.174;61.310;2023-05-29T09:53:34;6.10;;;2.90;;
11453;SDS011;5783;55.174;61.310;2023-05-29T09:56:08;5.20;;;3.20;;
11453;SDS011;5783;55.174;61.310;2023-05-29T09:58:37;4.77;;;3.30;;
11453;SDS011;5783;55.174;61.310;2023-05-29T10:01:09;5.70;;;3.17;;
11453;SDS011;5783;55.174;61.310;2023-05-29T10:04:00;4.20;;;3.13;;
11453;SDS011;5783;55.174;61.310;2023-05-29T10:06:29;5.20;;;3.20;;
11453;SDS011;5783;55.174;61.310;2023-05-29T10:08:59;6.10;;;3.10;;
11453;SDS011;5783;55.174;61.310;2023-05-29T10:11:29;6.25;;;3.00;;
11453;SDS011;5783;55.174;61.310;2023-05-29T10:14:00;3.50;;;3.00;;
11453;SDS011;5783;55.174;61.310;2023-05-29T10:16:31;5.30;;;3.00;;
11453;SDS011;5783;55.174;61.310;2023-05-29T10:19:04;5.10;;;2.90;;
11453;SDS011;5783;55.174;61.310;2023-05-29T10:21:35;4.80;;;2.97;;
11453;SDS011;5783;55.174;61.310;2023-05-29T10:24:08;3.30;;;3.00;;
11453;SDS011;5783;55.174;61.310;2023-05-29T10:26:39;4.40;;;3.00;;
11453;SDS011;5783;55.174;61.310;2023-05-29T10:40:33;3.60;;;3.10;;
11453;SDS011;5783;55.174;61.310;2023-05-29T10:43:02;5.03;;;2.83;;
11453;SDS011;5783;55.174;61.310;2023-05-29T10:50:56;6.30;;;3.20;;
11453;SDS011;5783;55.174;61.310;2023-05-29T10:53:26;5.00;;;3.35;;
11453;SDS011;5783;55.174;61.310;2023-05-29T10:59:07;3.40;;;2.80;;
11453;SDS011;5783;55.174;61.310;2023-05-29T11:04:26;5.50;;;2.97;;
11453;SDS011;5783;55.174;61.310;2023-05-29T11:06:58;4.30;;;3.05;;
11453;SDS011;5783;55.174;61.310;2023-05-29T11:15:08;4.50;;;3.00;;
11453;SDS011;5783;55.174;61.310;2023-05-29T11:20:44;5.60;;;3.00;;
11453;SDS011;5783;55.174;61.310;2023-05-29T11:23:04;4.00;;;2.90;;
11453;SDS011;5783;55.174;61.310;2023-05-29T11:25:35;3.85;;;3.05;;
11453;SDS011;5783;55.174;61.310;2023-05-29T11:28:04;3.10;;;2.80;;
11453;SDS011;5783;55.174;61.310;2023-05-29T11:33:27;5.10;;;3.00;;
11453;SDS011;5783;55.174;61.310;2023-05-29T11:35:59;5.35;;;3.00;;
11453;SDS011;5783;55.174;61.310;2023-05-29T11:38:28;5.27;;;3.33;;
11453;SDS011;5783;55.174;61.310;2023-05-29T11:41:00;4.80;;;3.10;;
11453;SDS011;5783;55.174;61.310;2023-05-29T11:43:29;3.95;;;3.30;;
11453;SDS011;5783;55.174;61.310;2023-05-29T11:45:59;5.10;;;3.20;;
11453;SDS011;5783;55.174;61.310;2023-05-29T11:48:28;6.07;;;3.30;;
11453;SDS011;5783;55.174;61.310;2023-05-29T11:50:57;5.15;;;3.30;;
11453;SDS011;5783;55.174;61.310;2023-05-29T11:53:26;3.40;;;3.05;;
11453;SDS011;5783;55.174;61.310;2023-05-29T11:56:06;4.70;;;3.20;;
11453;SDS011;5783;55.174;61.310;2023-05-29T11:58:46;3.60;;;2.60;;
11453;SDS011;5783;55.174;61.310;2023-05-29T12:01:16;4.85;;;3.30;;
11453;SDS011;5783;55.174;61.310;2023-05-29T12:03:47;5.35;;;3.50;;
11453;SDS011;5783;55.174;61.310;2023-05-29T12:06:16;4.75;;;3.20;;
11453;SDS011;5783;55.174;61.310;2023-05-29T12:09:08;6.65;;;3.55;;
11453;SDS011;5783;55.174;61.310;2023-05-29T12:11:37;5.33;;;3.43;;
11453;SDS011;5783;55.174;61.310;2023-05-29T12:14:06;4.90;;;3.55;;
11453;SDS011;5783;55.174;61.310;2023-05-29T12:16:35;6.00;;;3.60;;
11453;SDS011;5783;55.174;61.310;2023-05-29T12:19:04;5.60;;;3.70;;
11453;SDS011;5783;55.174;61.310;2023-05-29T12:21:33;6.40;;;3.30;;
11453;SDS011;5783;55.174;61.310;2023-05-29T12:24:03;4.53;;;3.53;;
11453;SDS011;5783;55.174;61.310;2023-05-29T12:26:33;5.07;;;3.60;;
11453;SDS011;5783;55.174;61.310;2023-05-29T12:29:03;6.10;;;3.70;;
11453;SDS011;5783;55.174;61.310;2023-05-29T12:31:33;6.45;;;3.70;;
11453;SDS011;5783;55.174;61.310;2023-05-29T12:34:07;4.47;;;3.57;;
11453;SDS011;5783;55.174;61.310;2023-05-29T12:36:54;4.30;;;3.43;;
11453;SDS011;5783;55.174;61.310;2023-05-29T12:39:25;4.90;;;3.40;;
11453;SDS011;5783;55.174;61.310;2023-05-29T12:41:54;7.00;;;3.50;;
11453;SDS011;5783;55.174;61.310;2023-05-29T12:44:23;5.33;;;3.20;;
11453;SDS011;5783;55.174;61.310;2023-05-29T12:46:55;8.00;;;3.80;;
11453;SDS011;5783;55.174;61.310;2023-05-29T12:49:24;26.37;;;13.90;;
11453;SDS011;5783;55.174;61.310;2023-05-29T12:51:55;39.83;;;24.23;;
11453;SDS011;5783;55.174;61.310;2023-05-29T12:54:25;48.53;;;28.07;;
11453;SDS011;5783;55.174;61.310;2023-05-29T12:56:54;47.00;;;30.40;;
11453;SDS011;5783;55.174;61.310;2023-05-29T12:59:25;41.67;;;26.53;;
11453;SDS011;5783;55.174;61.310;2023-05-29T13:01:54;38.83;;;27.27;;
11453;SDS011;5783;55.174;61.310;2023-05-29T13:04:23;52.15;;;33.50;;
11453;SDS011;5783;55.174;61.310;2023-05-29T13:06:52;51.90;;;35.17;;
11453;SDS011;5783;55.174;61.310;2023-05-29T13:09:21;53.40;;;36.37;;
11453;SDS011;5783;55.174;61.310;2023-05-29T13:11:50;49.07;;;35.57;;
11453;SDS011;5783;55.174;61.310;2023-05-29T13:14:19;56.17;;;40.30;;
11453;SDS011;5783;55.174;61.310;2023-05-29T13:16:49;55.03;;;35.27;;
11453;SDS011;5783;55.174;61.310;2023-05-29T13:19:18;40.93;;;32.30;;
11453;SDS011;5783;55.174;61.310;2023-05-29T13:21:47;38.50;;;29.67;;
11453;SDS011;5783;55.174;61.310;2023-05-29T13:24:16;39.17;;;28.00;;
11453;SDS011;5783;55.174;61.310;2023-05-29T13:26:45;36.55;;;27.00;;
11453;SDS011;5783;55.174;61.310;2023-05-29T13:29:16;40.40;;;29.20;;
11453;SDS011;5783;55.174;61.310;2023-05-29T13:31:46;48.40;;;35.20;;
11453;SDS011;5783;55.174;61.310;2023-05-29T13:34:15;48.40;;;37.10;;
11453;SDS011;5783;55.174;61.310;2023-05-29T13:36:44;48.80;;;37.85;;
11453;SDS011;5783;55.174;61.310;2023-05-29T13:39:13;45.00;;;36.20;;
11453;SDS011;5783;55.174;61.310;2023-05-29T13:44:11;33.47;;;27.93;;
11453;SDS011;5783;55.174;61.310;2023-05-29T13:46:40;34.20;;;25.60;;
11453;SDS011;5783;55.174;61.310;2023-05-29T13:49:09;31.50;;;23.00;;
11453;SDS011;5783;55.174;61.310;2023-05-29T13:51:38;25.80;;;20.90;;
11453;SDS011;5783;55.174;61.310;2023-05-29T13:54:08;25.30;;;18.60;;
11453;SDS011;5783;55.174;61.310;2023-05-29T13:56:37;23.30;;;17.20;;
11453;SDS011;5783;55.174;61.310;2023-05-29T13:59:06;24.57;;;15.93;;
11453;SDS011;5783;55.174;61.310;2023-05-29T14:01:35;19.10;;;14.70;;
11453;SDS011;5783;55.174;61.310;2023-05-29T14:04:04;16.23;;;12.47;;
11453;SDS011;5783;55.174;61.310;2023-05-29T14:06:33;15.50;;;12.70;;
11453;SDS011;5783;55.174;61.310;2023-05-29T14:09:02;19.20;;;11.70;;
11453;SDS011;5783;55.174;61.310;2023-05-29T14:11:33;14.97;;;11.47;;
11453;SDS011;5783;55.174;61.310;2023-05-29T14:14:03;12.40;;;10.10;;
11453;SDS011;5783;55.174;61.310;2023-05-29T14:16:33;13.17;;;9.67;;
11453;SDS011;5783;55.174;61.310;2023-05-29T14:19:02;10.73;;;8.30;;
11453;SDS011;5783;55.174;61.310;2023-05-29T14:21:31;12.77;;;8.40;;
11453;SDS011;5783;55.174;61.310;2023-05-29T14:24:01;9.47;;;7.50;;
11453;SDS011;5783;55.174;61.310;2023-05-29T14:26:30;10.90;;;7.57;;
11453;SDS011;5783;55.174;61.310;2023-05-29T14:29:00;8.83;;;6.80;;
11453;SDS011;5783;55.174;61.310;2023-05-29T14:31:29;7.07;;;6.37;;
11453;SDS011;5783;55.174;61.310;2023-05-29T14:33:58;7.67;;;5.73;;
11453;SDS011;5783;55.174;61.310;2023-05-29T14:36:27;7.90;;;5.80;;
11453;SDS011;5783;55.174;61.310;2023-05-29T14:38:56;7.17;;;5.57;;
11453;SDS011;5783;55.174;61.310;2023-05-29T14:41:25;7.87;;;5.70;;
11453;SDS011;5783;55.174;61.310;2023-05-29T14:43:54;7.90;;;5.60;;
11453;SDS011;5783;55.174;61.310;2023-05-29T14:49:12;6.83;;;5.23;;
11453;SDS011;5783;55.174;61.310;2023-05-29T14:51:41;8.47;;;5.53;;
11453;SDS011;5783;55.174;61.310;2023-05-29T14:54:10;7.55;;;5.45;;
11453;SDS011;5783;55.174;61.310;2023-05-29T14:56:39;8.60;;;5.10;;
11453;SDS011;5783;55.174;61.310;2023-05-29T14:59:08;5.63;;;5.03;;
11453;SDS011;5783;55.174;61.310;2023-05-29T15:01:37;7.80;;;4.70;;
11453;SDS011;5783;55.174;61.310;2023-05-29T15:04:07;6.97;;;4.70;;
11453;SDS011;5783;55.174;61.310;2023-05-29T15:06:36;5.60;;;4.70;;
11453;SDS011;5783;55.174;61.310;2023-05-29T15:09:05;5.60;;;4.30;;
11453;SDS011;5783;55.174;61.310;2023-05-29T15:11:34;4.23;;;3.83;;
11453;SDS011;5783;55.174;61.310;2023-05-29T15:14:03;5.60;;;3.90;;
11453;SDS011;5783;55.174;61.310;2023-05-29T15:16:32;5.63;;;4.33;;
11453;SDS011;5783;55.174;61.310;2023-05-29T15:19:01;5.87;;;4.90;;
11453;SDS011;5783;55.174;61.310;2023-05-29T15:21:31;5.00;;;4.30;;
11453;SDS011;5783;55.174;61.310;2023-05-29T15:24:00;4.83;;;4.23;;
11453;SDS011;5783;55.174;61.310;2023-05-29T15:26:29;4.80;;;4.10;;
11453;SDS011;5783;55.174;61.310;2023-05-29T15:28:58;6.07;;;4.47;;
11453;SDS011;5783;55.174;61.310;2023-05-29T15:31:27;5.35;;;4.15;;
11453;SDS011;5783;55.174;61.310;2023-05-29T15:33:56;5.97;;;4.30;;
11453;SDS011;5783;55.174;61.310;2023-05-29T15:36:25;5.40;;;4.33;;
11453;SDS011;5783;55.174;61.310;2023-05-29T15:38:55;6.37;;;4.60;;
11453;SDS011;5783;55.174;61.310;2023-05-29T15:41:24;7.53;;;4.20;;
11453;SDS011;5783;55.174;61.310;2023-05-29T15:43:55;6.30;;;4.53;;
11453;SDS011;5783;55.174;61.310;2023-05-29T15:49:13;4.70;;;4.20;;
11453;SDS011;5783;55.174;61.310;2023-05-29T15:51:42;5.10;;;4.27;;
11453;SDS011;5783;55.174;61.310;2023-05-29T15:54:11;4.87;;;4.17;;
11453;SDS011;5783;55.174;61.310;2023-05-29T15:56:40;4.30;;;3.90;;
11453;SDS011;5783;55.174;61.310;2023-05-29T15:59:09;5.20;;;3.90;;
11453;SDS011;5783;55.174;61.310;2023-05-29T16:01:38;4.75;;;3.80;;
11453;SDS011;5783;55.174;61.310;2023-05-29T16:04:07;5.73;;;3.83;;
11453;SDS011;5783;55.174;61.310;2023-05-29T16:06:38;4.40;;;3.90;;
11453;SDS011;5783;55.174;61.310;2023-05-29T16:09:07;4.60;;;4.10;;
11453;SDS011;5783;55.174;61.310;2023-05-29T16:11:36;4.50;;;4.00;;
11453;SDS011;5783;55.174;61.310;2023-05-29T16:21:51;4.50;;;4.00;;
11453;SDS011;5783;55.174;61.310;2023-05-29T16:24:20;5.65;;;4.00;;